createdAt,value
2022-11-02T00:00:33.198Z,91.99
2022-11-02T00:01:33.276Z,91.99
2022-11-02T00:02:33.229Z,91.89
2022-11-02T00:03:33.160Z,91.99
2022-11-02T00:04:33.146Z,91.99
2022-11-02T00:05:33.139Z,92.09
2022-11-02T00:06:33.134Z,92.19
2022-11-02T00:07:33.117Z,92.09
2022-11-02T00:08:33.101Z,92.09
2022-11-02T00:09:33.086Z,91.99
2022-11-02T00:10:35.078Z,92.09
2022-11-02T00:11:33.068Z,92.09
2022-11-02T00:12:33.053Z,92.09
2022-11-02T00:13:33.049Z,92.09
2022-11-02T00:14:33.053Z,92.09
2022-11-02T00:15:33.022Z,92.09
2022-11-02T00:16:33.007Z,92.19
2022-11-02T00:17:33.005Z,92.19
2022-11-02T00:18:32.985Z,92.19
2022-11-02T00:19:32.978Z,92.19
2022-11-02T00:20:32.961Z,92.19
2022-11-02T00:21:32.958Z,92.14
2022-11-02T00:22:32.944Z,92.24
2022-11-02T00:23:32.937Z,92.34
2022-11-02T00:24:32.929Z,92.34
2022-11-02T00:25:32.906Z,92.44
2022-11-02T00:26:32.894Z,92.44
2022-11-02T00:27:34.881Z,92.44
2022-11-02T00:28:32.870Z,92.44
2022-11-02T00:29:34.133Z,92.44
2022-11-02T00:30:32.871Z,92.44
2022-11-02T00:31:32.847Z,92.34
2022-11-02T00:32:32.825Z,92.34
2022-11-02T00:33:32.812Z,92.34
2022-11-02T00:34:32.803Z,92.34
2022-11-02T00:35:32.793Z,92.38
2022-11-02T00:36:32.784Z,92.28
2022-11-02T00:38:32.756Z,92.08
2022-11-02T00:39:32.765Z,92.08
2022-11-02T00:40:32.740Z,91.87
2022-11-02T00:41:32.721Z,91.87
2022-11-02T00:42:32.709Z,91.77
2022-11-02T00:43:32.699Z,91.77
2022-11-02T00:44:32.686Z,91.67
2022-11-02T00:45:32.678Z,91.57
2022-11-02T00:46:32.695Z,91.47
2022-11-02T00:47:32.658Z,91.36
2022-11-02T00:48:32.645Z,91.26
2022-11-02T00:49:32.651Z,91.16
2022-11-02T00:50:32.617Z,91.06
2022-11-02T00:51:32.604Z,91.06
2022-11-02T00:52:32.600Z,91.06
2022-11-02T00:53:32.584Z,90.96
2022-11-02T00:54:32.578Z,91.06
2022-11-02T00:55:32.562Z,90.96
2022-11-02T00:56:32.553Z,91.06
2022-11-02T00:57:32.538Z,90.96
2022-11-02T00:58:32.527Z,90.85
2022-11-02T00:59:32.516Z,90.85
2022-11-02T01:00:32.504Z,90.75
2022-11-02T01:01:32.652Z,90.75
2022-11-02T01:02:32.673Z,90.65
2022-11-02T01:03:32.477Z,90.55
2022-11-02T01:04:32.461Z,90.55
2022-11-02T01:05:32.449Z,90.44
2022-11-02T01:06:32.433Z,90.35
2022-11-02T01:07:32.430Z,90.38
2022-11-02T01:08:32.409Z,90.38
2022-11-02T01:09:32.401Z,90.28
2022-11-02T01:10:32.388Z,90.18
2022-11-02T01:11:32.377Z,90.08
2022-11-02T01:12:32.375Z,90.08
2022-11-02T01:13:32.352Z,89.97
2022-11-02T01:14:32.344Z,89.88
2022-11-02T01:15:32.330Z,89.88
2022-11-02T01:16:32.404Z,89.67
2022-11-02T01:17:32.306Z,89.57
2022-11-02T01:18:32.321Z,89.67
2022-11-02T01:19:32.284Z,89.47
2022-11-02T01:20:32.274Z,89.47
2022-11-02T01:21:32.264Z,89.47
2022-11-02T01:22:32.250Z,89.47
2022-11-02T01:23:32.240Z,89.57
2022-11-02T01:24:32.226Z,89.47
2022-11-02T01:25:32.227Z,89.47
2022-11-02T01:26:32.212Z,89.47
2022-11-02T01:27:32.197Z,89.26
2022-11-02T01:28:32.183Z,89.26
2022-11-02T01:29:32.170Z,89.16
2022-11-02T01:30:32.160Z,89.16
2022-11-02T01:31:32.150Z,89.16
2022-11-02T01:32:32.141Z,89.06
2022-11-02T01:33:32.127Z,88.85
2022-11-02T01:34:32.137Z,88.95
2022-11-02T01:35:32.101Z,88.85
2022-11-02T01:36:32.105Z,88.85
2022-11-02T01:37:32.094Z,88.75
2022-11-02T01:38:32.079Z,88.65
2022-11-02T01:39:32.060Z,88.65
2022-11-02T01:40:32.048Z,88.54
2022-11-02T01:41:32.031Z,88.54
2022-11-02T01:42:32.022Z,88.54
2022-11-02T01:43:32.014Z,88.44
2022-11-02T01:44:32.013Z,88.44
2022-11-02T01:45:32.004Z,88.44
2022-11-02T01:46:31.980Z,88.44
2022-11-02T01:47:31.969Z,88.24
2022-11-02T01:48:31.952Z,88.14
2022-11-02T01:49:31.944Z,87.93
2022-11-02T01:50:31.953Z,87.93
2022-11-02T01:51:31.920Z,87.93
2022-11-02T01:52:31.906Z,87.93
2022-11-02T01:53:31.895Z,87.93
2022-11-02T01:54:31.886Z,88.04
2022-11-02T01:55:31.876Z,88.07
2022-11-02T01:56:31.870Z,87.98
2022-11-02T01:57:31.851Z,87.87
2022-11-02T01:58:31.845Z,87.77
2022-11-02T01:59:31.826Z,87.87
2022-11-02T02:00:31.837Z,87.87
2022-11-02T02:01:31.998Z,87.77
2022-11-02T02:02:31.968Z,87.67
2022-11-02T02:03:31.781Z,87.46
2022-11-02T02:04:31.772Z,87.57
2022-11-02T02:05:31.759Z,87.46
2022-11-02T02:06:31.769Z,87.36
2022-11-02T02:07:31.742Z,87.26
2022-11-02T02:08:31.723Z,87.16
2022-11-02T02:09:31.711Z,87.26
2022-11-02T02:10:31.712Z,87.16
2022-11-02T02:11:31.693Z,87.06
2022-11-02T02:12:31.679Z,86.95
2022-11-02T02:13:31.666Z,86.85
2022-11-02T02:14:31.656Z,86.85
2022-11-02T02:15:31.651Z,86.85
2022-11-02T02:16:33.564Z,87.06
2022-11-02T02:17:31.620Z,86.95
2022-11-02T02:18:31.609Z,86.95
2022-11-02T02:19:31.602Z,86.85
2022-11-02T02:20:31.586Z,86.85
2022-11-02T02:21:31.583Z,86.75
2022-11-02T02:22:31.587Z,86.75
2022-11-02T02:23:31.557Z,86.75
2022-11-02T02:24:31.549Z,86.85
2022-11-02T02:25:31.533Z,86.75
2022-11-02T02:26:31.531Z,86.69
2022-11-02T02:27:31.507Z,86.79
2022-11-02T02:28:31.502Z,86.89
2022-11-02T02:29:31.493Z,86.79
2022-11-02T02:30:31.476Z,86.89
2022-11-02T02:31:31.465Z,86.69
2022-11-02T02:32:31.448Z,86.69
2022-11-02T02:33:31.437Z,86.59
2022-11-02T02:34:31.425Z,86.59
2022-11-02T02:35:31.418Z,86.59
2022-11-02T02:36:33.443Z,86.59
2022-11-02T02:37:31.392Z,86.69
2022-11-02T02:38:31.405Z,86.69
2022-11-02T02:39:31.369Z,86.69
2022-11-02T02:40:31.365Z,86.69
2022-11-02T02:41:31.346Z,86.73
2022-11-02T02:42:31.335Z,86.83
2022-11-02T02:43:31.326Z,86.93
2022-11-02T02:44:31.312Z,87.03
2022-11-02T02:45:31.301Z,87.03
2022-11-02T02:46:34.435Z,86.93
2022-11-02T02:47:31.377Z,87.03
2022-11-02T02:48:31.271Z,86.93
2022-11-02T02:49:31.263Z,87.03
2022-11-02T02:50:31.245Z,87.13
2022-11-02T02:51:31.235Z,87.03
2022-11-02T02:52:31.221Z,86.93
2022-11-02T02:53:31.216Z,87.03
2022-11-02T02:54:31.220Z,87.03
2022-11-02T02:55:31.192Z,86.83
2022-11-02T02:56:31.176Z,86.73
2022-11-02T02:57:31.164Z,86.73
2022-11-02T02:58:31.153Z,86.73
2022-11-02T02:59:31.141Z,86.62
2022-11-02T03:00:31.135Z,86.62
2022-11-02T03:01:31.289Z,86.52
2022-11-02T03:02:31.294Z,86.42
2022-11-02T03:03:31.101Z,86.52
2022-11-02T03:04:31.084Z,86.32
2022-11-02T03:05:31.073Z,86.21
2022-11-02T03:06:31.062Z,86.32
2022-11-02T03:07:33.848Z,86.32
2022-11-02T03:08:31.039Z,86.32
2022-11-02T03:09:31.027Z,86.21
2022-11-02T03:10:31.040Z,86.32
2022-11-02T03:11:31.004Z,86.42
2022-11-02T03:12:30.996Z,86.32
2022-11-02T03:13:30.981Z,86.36
2022-11-02T03:14:30.979Z,86.36
2022-11-02T03:15:30.959Z,86.36
2022-11-02T03:16:30.952Z,86.36
2022-11-02T03:17:30.937Z,86.36
2022-11-02T03:18:30.933Z,86.46
2022-11-02T03:19:30.916Z,86.46
2022-11-02T03:20:30.913Z,86.46
2022-11-02T03:21:30.901Z,86.46
2022-11-02T03:22:30.881Z,86.56
2022-11-02T03:23:30.898Z,86.46
2022-11-02T03:24:30.858Z,86.46
2022-11-02T03:25:30.854Z,86.56
2022-11-02T03:26:30.858Z,86.56
2022-11-02T03:27:30.829Z,86.56
2022-11-02T03:28:30.814Z,86.46
2022-11-02T03:29:30.802Z,86.56
2022-11-02T03:30:30.797Z,86.56
2022-11-02T03:31:30.779Z,86.71
2022-11-02T03:32:30.773Z,86.81
2022-11-02T03:33:30.755Z,86.81
2022-11-02T03:34:30.745Z,86.81
2022-11-02T03:35:30.733Z,86.91
2022-11-02T03:36:30.725Z,86.91
2022-11-02T03:37:30.715Z,87.01
2022-11-02T03:38:30.700Z,87.01
2022-11-02T03:39:30.692Z,87.01
2022-11-02T03:40:30.681Z,87.01
2022-11-02T03:41:30.675Z,86.91
2022-11-02T03:42:30.676Z,86.91
2022-11-02T03:43:30.649Z,86.91
2022-11-02T03:44:30.632Z,87.01
2022-11-02T03:45:30.637Z,87.01
2022-11-02T03:46:30.609Z,87.01
2022-11-02T03:47:30.599Z,87.06
2022-11-02T03:48:30.595Z,87.01
2022-11-02T03:49:30.576Z,87.01
2022-11-02T03:50:30.570Z,87.06
2022-11-02T03:51:30.553Z,87.15
2022-11-02T03:52:30.547Z,87.15
2022-11-02T03:53:30.539Z,87.36
2022-11-02T03:54:30.519Z,87.36
2022-11-02T03:55:30.513Z,87.26
2022-11-02T03:56:32.497Z,87.36
2022-11-02T03:57:30.486Z,87.36
2022-11-02T03:58:30.500Z,87.46
2022-11-02T03:59:30.465Z,87.46
2022-11-02T04:00:32.453Z,87.36
2022-11-02T04:01:30.567Z,87.36
2022-11-02T04:02:30.605Z,87.36
2022-11-02T04:03:30.419Z,87.36
2022-11-02T04:04:30.413Z,87.36
2022-11-02T04:05:30.399Z,87.36
2022-11-02T04:06:30.388Z,87.36
2022-11-02T04:07:30.374Z,87.26
2022-11-02T04:08:30.365Z,87.26
2022-11-02T04:09:30.353Z,87.26
2022-11-02T04:10:30.345Z,87.26
2022-11-02T04:11:30.333Z,87.26
2022-11-02T04:12:30.321Z,87.36
2022-11-02T04:13:30.308Z,87.36
2022-11-02T04:14:30.324Z,87.26
2022-11-02T04:15:30.384Z,87.26
2022-11-02T04:16:30.278Z,87.15
2022-11-02T04:18:30.253Z,87.15
2022-11-02T04:19:30.245Z,87.26
2022-11-02T04:20:30.230Z,87.15
2022-11-02T04:21:30.223Z,87.15
2022-11-02T04:22:30.206Z,87.15
2022-11-02T04:23:30.202Z,87.15
2022-11-02T04:24:30.185Z,87.15
2022-11-02T04:25:30.176Z,87.06
2022-11-02T04:26:30.160Z,86.95
2022-11-02T04:27:30.151Z,86.95
2022-11-02T04:28:30.139Z,86.95
2022-11-02T04:29:30.131Z,86.95
2022-11-02T04:30:30.140Z,86.95
2022-11-02T04:31:30.111Z,86.99
2022-11-02T04:32:30.095Z,86.99
2022-11-02T04:33:30.083Z,86.89
2022-11-02T04:34:30.072Z,86.99
2022-11-02T04:35:30.059Z,86.95
2022-11-02T04:36:30.062Z,86.99
2022-11-02T04:38:30.031Z,86.99
2022-11-02T04:39:30.016Z,86.99
2022-11-02T04:40:30.005Z,87.09
2022-11-02T04:41:29.994Z,86.99
2022-11-02T04:42:29.982Z,86.99
2022-11-02T04:43:29.972Z,87.09
2022-11-02T04:44:29.976Z,87.20
2022-11-02T04:45:29.948Z,87.09
2022-11-02T04:46:29.961Z,87.20
2022-11-02T04:47:29.926Z,87.09
2022-11-02T04:48:29.920Z,87.09
2022-11-02T04:49:29.905Z,87.20
2022-11-02T04:50:29.899Z,87.20
2022-11-02T04:51:29.883Z,87.40
2022-11-02T04:52:29.870Z,87.40
2022-11-02T04:53:29.858Z,87.50
2022-11-02T04:54:29.848Z,87.54
2022-11-02T04:55:29.839Z,87.65
2022-11-02T04:56:29.824Z,87.65
2022-11-02T04:57:29.837Z,87.65
2022-11-02T04:58:29.803Z,87.65
2022-11-02T04:59:29.793Z,87.75
2022-11-02T05:00:29.780Z,87.75
2022-11-02T05:01:29.975Z,87.65
2022-11-02T05:02:29.930Z,87.65
2022-11-02T05:03:29.747Z,87.65
2022-11-02T05:04:29.737Z,87.75
2022-11-02T05:05:29.725Z,87.75
2022-11-02T05:06:29.717Z,87.75
2022-11-02T05:07:29.703Z,87.85
2022-11-02T05:08:29.695Z,87.75
2022-11-02T05:09:29.678Z,87.65
2022-11-02T05:10:29.670Z,87.75
2022-11-02T05:11:29.661Z,87.85
2022-11-02T05:12:29.646Z,87.85
2022-11-02T05:13:29.640Z,87.85
2022-11-02T05:14:29.626Z,87.85
2022-11-02T05:15:29.618Z,87.85
2022-11-02T05:16:29.604Z,87.75
2022-11-02T05:17:29.840Z,87.75
2022-11-02T05:18:29.605Z,87.54
2022-11-02T05:19:29.568Z,87.54
2022-11-02T05:20:29.559Z,87.54
2022-11-02T05:21:29.545Z,87.54
2022-11-02T05:22:29.541Z,87.44
2022-11-02T05:23:29.525Z,87.44
2022-11-02T05:24:29.512Z,87.34
2022-11-02T05:25:29.505Z,87.34
2022-11-02T05:26:29.487Z,87.24
2022-11-02T05:27:29.487Z,87.24
2022-11-02T05:28:29.465Z,87.20
2022-11-02T05:29:29.459Z,87.09
2022-11-02T05:30:29.443Z,87.09
2022-11-02T05:31:29.436Z,87.09
2022-11-02T05:32:29.419Z,87.09
2022-11-02T05:33:30.729Z,87.09
2022-11-02T05:34:29.421Z,87.09
2022-11-02T05:35:29.385Z,86.89
2022-11-02T05:36:29.379Z,86.89
2022-11-02T05:37:29.360Z,86.89
2022-11-02T05:38:29.496Z,86.79
2022-11-02T05:39:29.343Z,86.79
2022-11-02T05:40:29.328Z,86.89
2022-11-02T05:41:29.323Z,86.89
2022-11-02T05:42:29.328Z,86.99
2022-11-02T05:43:31.298Z,86.99
2022-11-02T05:44:29.283Z,86.89
2022-11-02T05:45:29.273Z,86.89
2022-11-02T05:46:29.265Z,86.79
2022-11-02T05:47:29.259Z,86.79
2022-11-02T05:48:29.238Z,86.79
2022-11-02T05:49:31.250Z,86.68
2022-11-02T05:50:29.216Z,86.68
2022-11-02T05:51:29.199Z,86.68
2022-11-02T05:52:29.193Z,86.79
2022-11-02T05:53:29.182Z,86.79
2022-11-02T05:54:29.164Z,86.79
2022-11-02T05:55:29.160Z,86.79
2022-11-02T05:56:29.149Z,86.79
2022-11-02T05:57:29.130Z,86.68
2022-11-02T05:58:31.121Z,86.68
2022-11-02T05:59:31.107Z,86.79
2022-11-02T06:00:29.096Z,86.68
2022-11-02T06:01:29.135Z,86.68
2022-11-02T06:02:29.085Z,86.68
2022-11-02T06:03:29.060Z,86.58
2022-11-02T06:04:29.051Z,86.48
2022-11-02T06:05:29.138Z,86.48
2022-11-02T06:06:29.027Z,86.68
2022-11-02T06:07:29.019Z,86.79
2022-11-02T06:08:29.004Z,86.79
2022-11-02T06:09:28.998Z,86.79
2022-11-02T06:10:30.991Z,86.79
2022-11-02T06:11:28.971Z,86.93
2022-11-02T06:12:28.958Z,87.03
2022-11-02T06:13:28.947Z,87.24
2022-11-02T06:14:28.949Z,87.34
2022-11-02T06:15:28.925Z,87.13
2022-11-02T06:16:28.920Z,87.13
2022-11-02T06:17:28.902Z,87.13
2022-11-02T06:18:28.891Z,87.13
2022-11-02T06:19:28.879Z,87.13
2022-11-02T06:20:28.889Z,87.24
2022-11-02T06:21:28.888Z,87.24
2022-11-02T06:22:28.847Z,87.13
2022-11-02T06:23:28.840Z,87.24
2022-11-02T06:24:28.824Z,87.24
2022-11-02T06:25:28.816Z,87.34
2022-11-02T06:26:28.802Z,87.24
2022-11-02T06:27:28.791Z,87.34
2022-11-02T06:28:28.780Z,87.34
2022-11-02T06:29:28.770Z,87.44
2022-11-02T06:30:28.757Z,87.44
2022-11-02T06:31:28.750Z,87.44
2022-11-02T06:32:28.735Z,87.54
2022-11-02T06:33:28.722Z,87.54
2022-11-02T06:34:28.712Z,87.65
2022-11-02T06:35:28.703Z,87.65
2022-11-02T06:36:28.695Z,87.65
2022-11-02T06:37:28.702Z,87.54
2022-11-02T06:38:28.690Z,87.44
2022-11-02T06:39:28.717Z,87.44
2022-11-02T06:40:28.642Z,87.34
2022-11-02T06:41:28.631Z,87.34
2022-11-02T06:42:28.620Z,87.44
2022-11-02T06:43:28.610Z,87.44
2022-11-02T06:44:28.604Z,87.44
2022-11-02T06:45:28.589Z,87.40
2022-11-02T06:46:28.575Z,87.20
2022-11-02T06:47:28.563Z,87.20
2022-11-02T06:48:33.331Z,87.20
2022-11-02T06:49:28.544Z,87.24
2022-11-02T06:50:28.529Z,87.30
2022-11-02T06:51:28.524Z,87.20
2022-11-02T06:52:28.507Z,87.20
2022-11-02T06:53:28.523Z,87.20
2022-11-02T06:54:28.485Z,87.09
2022-11-02T06:55:28.481Z,86.89
2022-11-02T06:56:28.461Z,86.89
2022-11-02T06:57:28.453Z,86.89
2022-11-02T06:58:28.438Z,86.99
2022-11-02T06:59:28.429Z,86.89
2022-11-02T07:00:28.695Z,86.74
2022-11-02T07:01:28.694Z,86.74
2022-11-02T07:02:28.466Z,86.64
2022-11-02T07:03:28.392Z,86.54
2022-11-02T07:04:28.370Z,86.44
2022-11-02T07:05:28.357Z,86.34
2022-11-02T07:06:28.349Z,86.34
2022-11-02T07:07:28.337Z,86.13
2022-11-02T07:08:28.327Z,86.09
2022-11-02T07:09:28.357Z,85.79
2022-11-02T07:10:28.427Z,85.58
2022-11-02T07:11:28.289Z,85.23
2022-11-02T07:12:28.285Z,84.62
2022-11-02T07:13:28.290Z,84.31
2022-11-02T07:14:28.256Z,84.31
2022-11-02T07:15:28.245Z,84.31
2022-11-02T07:16:28.232Z,84.21
2022-11-02T07:17:32.049Z,84.11
2022-11-02T07:18:28.310Z,84.21
2022-11-02T07:19:28.202Z,84.31
2022-11-02T07:20:28.320Z,84.52
2022-11-02T07:21:28.175Z,84.41
2022-11-02T07:22:28.167Z,84.41
2022-11-02T07:23:28.154Z,84.21
2022-11-02T07:24:28.148Z,83.97
2022-11-02T07:25:28.160Z,83.45
2022-11-02T07:26:28.120Z,83.31
2022-11-02T07:27:28.109Z,83.01
2022-11-02T07:28:28.103Z,82.91
2022-11-02T07:29:28.088Z,82.91
2022-11-02T07:30:28.154Z,82.70
2022-11-02T07:31:28.068Z,82.36
2022-11-02T07:32:28.054Z,81.95
2022-11-02T07:33:28.048Z,81.84
2022-11-02T07:34:28.031Z,82.04
2022-11-02T07:35:28.029Z,81.95
2022-11-02T07:36:28.012Z,81.95
2022-11-02T07:37:27.997Z,81.81
2022-11-02T07:38:27.984Z,81.36
2022-11-02T07:39:27.975Z,79.85
2022-11-02T07:40:28.022Z,78.69
2022-11-02T07:41:27.977Z,77.94
2022-11-02T07:42:27.941Z,77.13
2022-11-02T07:43:27.930Z,77.81
2022-11-02T07:44:27.918Z,75.70
2022-11-02T07:45:27.909Z,75.39
2022-11-02T07:46:27.897Z,74.99
2022-11-02T07:47:27.883Z,74.54
2022-11-02T07:48:27.877Z,73.80
2022-11-02T07:49:27.864Z,72.95
2022-11-02T07:50:28.001Z,73.15
2022-11-02T07:51:27.838Z,72.61
2022-11-02T07:52:27.831Z,72.21
2022-11-02T07:53:27.824Z,72.10
2022-11-02T07:54:27.804Z,71.97
2022-11-02T07:55:27.801Z,71.02
2022-11-02T07:56:27.785Z,70.62
2022-11-02T07:57:27.807Z,70.38
2022-11-02T07:58:27.758Z,69.54
2022-11-02T07:59:27.759Z,69.87
2022-11-02T08:00:27.735Z,70.11
2022-11-02T08:01:27.799Z,70.21
2022-11-02T08:02:27.829Z,70.18
2022-11-02T08:03:27.749Z,69.57
2022-11-02T08:04:27.696Z,70.31
2022-11-02T08:05:27.679Z,70.65
2022-11-02T08:06:27.669Z,70.72
2022-11-02T08:07:27.657Z,70.08
2022-11-02T08:08:27.649Z,69.77
2022-11-02T08:09:27.641Z,70.01
2022-11-02T08:10:27.689Z,70.31
2022-11-02T08:11:27.728Z,70.11
2022-11-02T08:12:27.707Z,70.75
2022-11-02T08:13:32.692Z,72.03
2022-11-02T08:14:27.682Z,72.21
2022-11-02T08:15:27.676Z,72.24
2022-11-02T08:16:27.859Z,72.75
2022-11-02T08:17:27.602Z,72.10
2022-11-02T08:18:27.644Z,72.00
2022-11-02T08:19:27.623Z,71.46
2022-11-02T08:20:27.615Z,71.36
2022-11-02T08:21:27.604Z,71.46
2022-11-02T08:22:27.645Z,71.36
2022-11-02T08:23:27.583Z,71.02
2022-11-02T08:24:27.620Z,70.82
2022-11-02T08:25:27.510Z,70.72
2022-11-02T08:26:27.547Z,71.02
2022-11-02T08:27:27.536Z,71.13
2022-11-02T08:28:27.535Z,70.92
2022-11-02T08:29:27.745Z,71.02
2022-11-02T08:30:27.513Z,71.13
2022-11-02T08:31:27.493Z,71.26
2022-11-02T08:32:27.481Z,71.36
2022-11-02T08:33:27.470Z,71.46
2022-11-02T08:34:27.462Z,71.77
2022-11-02T08:35:27.446Z,72.17
2022-11-02T08:36:27.441Z,72.31
2022-11-02T08:37:27.429Z,72.51
2022-11-02T08:38:27.415Z,72.91
2022-11-02T08:39:27.409Z,73.05
2022-11-02T08:40:27.393Z,73.15
2022-11-02T08:41:27.381Z,73.05
2022-11-02T08:42:27.373Z,73.26
2022-11-02T08:43:27.360Z,73.56
2022-11-02T08:44:27.350Z,73.56
2022-11-02T08:45:27.266Z,73.12
2022-11-02T08:46:27.232Z,72.91
2022-11-02T08:47:27.216Z,72.91
2022-11-02T08:48:27.206Z,72.82
2022-11-02T08:49:27.194Z,72.91
2022-11-02T08:50:27.184Z,73.15
2022-11-02T08:51:27.171Z,73.56
2022-11-02T08:52:27.168Z,73.66
2022-11-02T08:53:27.147Z,73.87
2022-11-02T08:54:27.137Z,73.97
2022-11-02T08:55:27.126Z,73.87
2022-11-02T08:56:27.115Z,73.93
2022-11-02T08:57:27.104Z,73.63
2022-11-02T08:58:27.096Z,73.63
2022-11-02T08:59:27.086Z,73.63
2022-11-02T09:00:27.072Z,73.43
2022-11-02T09:01:27.146Z,73.43
2022-11-02T09:02:27.145Z,73.52
2022-11-02T09:03:27.689Z,73.52
2022-11-02T09:04:27.032Z,73.29
2022-11-02T09:05:27.016Z,73.32
2022-11-02T09:06:27.005Z,73.52
2022-11-02T09:07:26.995Z,72.34
2022-11-02T09:08:26.984Z,71.94
2022-11-02T09:09:26.993Z,72.24
2022-11-02T09:10:26.960Z,71.09
2022-11-02T09:11:26.953Z,68.70
2022-11-02T09:12:26.944Z,68.06
2022-11-02T09:13:27.025Z,66.88
2022-11-02T09:14:26.932Z,66.61
2022-11-02T09:15:26.907Z,67.15
2022-11-02T09:16:26.891Z,67.79
2022-11-02T09:17:26.903Z,68.12
2022-11-02T09:18:26.869Z,68.96
2022-11-02T09:19:26.855Z,69.67
2022-11-02T09:20:26.847Z,68.73
2022-11-02T09:21:26.832Z,66.35
2022-11-02T09:22:26.821Z,64.97
2022-11-02T09:23:26.810Z,64.67
2022-11-02T09:24:26.798Z,64.47
2022-11-02T09:25:26.791Z,64.13
2022-11-02T09:26:26.784Z,63.40
2022-11-02T09:27:26.768Z,63.00
2022-11-02T09:28:26.754Z,62.56
2022-11-02T09:29:26.747Z,62.23
2022-11-02T09:30:26.736Z,61.70
2022-11-02T09:31:26.731Z,61.52
2022-11-02T09:32:26.713Z,61.83
2022-11-02T09:33:26.736Z,61.80
2022-11-02T09:34:26.688Z,60.76
2022-11-02T09:35:26.679Z,60.23
2022-11-02T09:36:26.681Z,60.56
2022-11-02T09:37:26.654Z,60.79
2022-11-02T09:38:26.643Z,60.87
2022-11-02T09:39:26.634Z,60.66
2022-11-02T09:40:26.623Z,60.66
2022-11-02T09:41:26.612Z,60.33
2022-11-02T09:42:26.601Z,59.24
2022-11-02T09:43:31.904Z,58.11
2022-11-02T09:44:26.578Z,58.23
2022-11-02T09:45:26.562Z,58.64
2022-11-02T09:46:26.557Z,57.58
2022-11-02T09:48:14.788Z,57.38
2022-11-02T09:48:28.602Z,57.25
2022-11-02T09:49:26.956Z,56.82
2022-11-02T09:51:26.525Z,56.65
2022-11-02T09:52:26.492Z,57.05
2022-11-02T09:53:26.474Z,56.70
2022-11-02T09:54:26.462Z,55.81
2022-11-02T09:55:26.448Z,53.54
2022-11-02T09:56:26.440Z,52.44
2022-11-02T09:57:26.434Z,53.03
2022-11-02T09:58:26.415Z,52.89
2022-11-02T09:59:26.413Z,51.67
2022-11-02T10:00:26.393Z,51.42
2022-11-02T10:01:26.443Z,53.02
2022-11-02T10:02:26.405Z,53.84
2022-11-02T10:03:26.361Z,54.54
2022-11-02T10:04:26.348Z,53.09
2022-11-02T10:05:26.831Z,52.16
2022-11-02T10:06:26.326Z,52.79
2022-11-02T10:07:26.320Z,52.36
2022-11-02T10:08:26.312Z,52.06
2022-11-02T10:09:26.294Z,52.31
2022-11-02T10:10:26.291Z,52.86
2022-11-02T10:11:26.339Z,52.21
2022-11-02T10:12:26.260Z,50.57
2022-11-02T10:13:26.249Z,50.34
2022-11-02T10:14:26.236Z,49.40
2022-11-02T10:15:26.237Z,48.48
2022-11-02T10:16:26.216Z,48.65
2022-11-02T10:17:26.206Z,47.64
2022-11-02T10:18:26.194Z,47.71
2022-11-02T10:19:26.448Z,47.49
2022-11-02T10:20:26.171Z,46.58
2022-11-02T10:21:26.188Z,45.68
2022-11-02T10:22:26.149Z,45.98
2022-11-02T10:23:26.138Z,47.08
2022-11-02T10:24:26.126Z,48.63
2022-11-02T10:25:26.115Z,48.95
2022-11-02T10:26:26.104Z,49.15
2022-11-02T10:27:26.097Z,48.82
2022-11-02T10:28:26.137Z,49.17
2022-11-02T10:29:26.073Z,50.12
2022-11-02T10:30:26.057Z,50.86
2022-11-02T10:31:26.046Z,51.49
2022-11-02T10:32:26.034Z,51.89
2022-11-02T10:33:26.026Z,51.54
2022-11-02T10:34:26.022Z,50.42
2022-11-02T10:35:37.241Z,50.54
2022-11-02T10:36:26.039Z,50.59
2022-11-02T10:37:26.059Z,49.72
2022-11-02T10:38:25.975Z,48.55
2022-11-02T10:39:25.964Z,47.52
2022-11-02T10:40:25.945Z,46.80
2022-11-02T10:41:25.934Z,46.38
2022-11-02T10:42:25.925Z,45.46
2022-11-02T10:43:25.918Z,45.26
2022-11-02T10:44:25.916Z,45.86
2022-11-02T10:45:25.894Z,45.78
2022-11-02T10:46:25.878Z,46.25
2022-11-02T10:47:25.869Z,47.68
2022-11-02T10:48:25.863Z,47.54
2022-11-02T10:49:25.845Z,47.00
2022-11-02T10:50:25.846Z,46.28
2022-11-02T10:51:25.824Z,45.24
2022-11-02T10:52:25.814Z,44.59
2022-11-02T10:53:42.433Z,46.36
2022-11-02T10:54:30.928Z,47.19
2022-11-02T10:55:25.786Z,47.26
2022-11-02T10:56:25.771Z,46.74
2022-11-02T10:57:25.762Z,46.89
2022-11-02T10:58:25.754Z,45.58
2022-11-02T10:59:25.741Z,45.33
2022-11-02T11:00:25.808Z,45.65
2022-11-02T11:01:25.856Z,46.13
2022-11-02T11:02:25.707Z,45.48
2022-11-02T11:03:25.691Z,44.07
2022-11-02T11:04:25.689Z,44.65
2022-11-02T11:05:25.671Z,43.73
2022-11-02T11:06:25.659Z,43.21
2022-11-02T11:07:25.647Z,43.69
2022-11-02T11:08:25.638Z,43.20
2022-11-02T11:09:25.651Z,43.28
2022-11-02T11:10:25.619Z,42.77
2022-11-02T11:11:25.607Z,42.88
2022-11-02T11:12:25.591Z,42.50
2022-11-02T11:16:26.492Z,46.07
2022-11-02T11:19:42.874Z,45.92
2022-11-02T11:20:25.505Z,45.28
2022-11-02T11:21:25.492Z,44.51
2022-11-02T11:22:25.480Z,45.09
2022-11-02T11:23:25.475Z,44.17
2022-11-02T11:24:25.530Z,44.49
2022-11-02T11:25:28.013Z,44.81
2022-11-02T11:26:25.434Z,45.25
2022-11-02T11:27:25.425Z,45.77
2022-11-02T11:28:25.416Z,47.08
2022-11-02T11:29:25.401Z,47.33
2022-11-02T11:30:54.090Z,47.85
2022-11-02T11:31:25.378Z,48.37
2022-11-02T11:32:29.925Z,48.00
2022-11-02T11:33:25.357Z,48.60
2022-11-02T11:34:25.348Z,48.94
2022-11-02T11:35:25.334Z,50.09
2022-11-02T11:37:25.325Z,51.77
2022-11-02T11:38:25.301Z,51.66
2022-11-02T11:39:25.290Z,52.27
2022-11-02T11:40:25.280Z,51.89
2022-11-02T11:41:25.306Z,52.79
2022-11-02T11:42:25.262Z,52.49
2022-11-02T11:43:25.246Z,53.22
2022-11-02T11:44:25.239Z,53.52
2022-11-02T11:45:25.224Z,52.52
2022-11-02T11:46:25.214Z,53.34
2022-11-02T11:47:25.202Z,53.74
2022-11-02T11:48:25.195Z,52.94
2022-11-02T11:49:41.637Z,53.24
2022-11-02T11:50:27.870Z,53.44
2022-11-02T11:51:25.987Z,53.47
2022-11-02T11:52:30.923Z,53.84
2022-11-02T11:53:25.156Z,53.64
2022-11-02T11:54:25.123Z,53.82
2022-11-02T11:55:25.120Z,52.91
2022-11-02T11:56:25.108Z,52.89
2022-11-02T11:57:25.252Z,52.79
2022-11-02T11:58:25.083Z,52.69
2022-11-02T11:59:25.076Z,52.39
2022-11-02T12:00:25.059Z,52.59
2022-11-02T12:01:25.161Z,52.71
2022-11-02T12:02:25.257Z,53.44
2022-11-02T12:03:25.160Z,52.74
2022-11-02T12:04:25.015Z,53.07
2022-11-02T12:05:25.006Z,53.36
2022-11-02T12:06:24.988Z,52.86
2022-11-02T12:07:24.983Z,53.09
2022-11-02T12:08:24.966Z,53.42
2022-11-02T12:09:24.962Z,54.02
2022-11-02T12:10:24.944Z,54.02
2022-11-02T12:11:24.934Z,54.12
2022-11-02T12:12:24.921Z,54.12
2022-11-02T12:13:24.934Z,54.44
2022-11-02T12:14:24.900Z,54.55
2022-11-02T12:15:24.937Z,54.95
2022-11-02T12:16:24.896Z,54.52
2022-11-02T12:17:24.870Z,54.29
2022-11-02T12:18:24.864Z,53.64
2022-11-02T12:19:27.333Z,52.77
2022-11-02T12:20:24.845Z,51.81
2022-11-02T12:21:24.817Z,50.37
2022-11-02T12:22:24.808Z,49.74
2022-11-02T12:23:24.800Z,49.74
2022-11-02T12:24:24.784Z,49.52
2022-11-02T12:25:24.775Z,49.52
2022-11-02T12:26:24.767Z,48.79
2022-11-02T12:27:24.852Z,48.52
2022-11-02T12:28:24.740Z,47.63
2022-11-02T12:29:24.755Z,47.15
2022-11-02T12:30:24.826Z,47.88
2022-11-02T12:31:24.708Z,48.40
2022-11-02T12:32:24.695Z,48.94
2022-11-02T12:33:24.688Z,49.87
2022-11-02T12:34:24.676Z,50.39
2022-11-02T12:35:30.853Z,50.09
2022-11-02T12:36:24.701Z,50.41
2022-11-02T12:37:39.029Z,50.54
2022-11-02T12:38:24.632Z,51.14
2022-11-02T12:39:24.619Z,50.86
2022-11-02T12:41:24.599Z,50.61
2022-11-02T12:42:24.590Z,48.57
2022-11-02T12:43:24.573Z,48.12
2022-11-02T12:44:24.562Z,46.08
2022-11-02T12:45:24.575Z,44.84
2022-11-02T12:46:24.544Z,43.52
2022-11-02T12:47:24.532Z,43.64
2022-11-02T12:48:24.521Z,43.46
2022-11-02T12:49:24.515Z,43.46
2022-11-02T12:50:24.496Z,42.95
2022-11-02T12:51:24.501Z,42.52
2022-11-02T12:52:24.474Z,42.43
2022-11-02T12:53:24.463Z,42.13
2022-11-02T12:54:24.452Z,41.81
2022-11-02T12:55:24.437Z,41.29
2022-11-02T12:56:24.431Z,40.77
2022-11-02T12:57:24.420Z,40.47
2022-11-02T12:58:24.459Z,40.46
2022-11-02T12:59:24.398Z,40.34
2022-11-02T13:00:24.388Z,39.66
2022-11-02T13:01:24.567Z,40.16
2022-11-02T13:02:24.366Z,40.06
2022-11-02T13:03:24.355Z,40.55